Kezdőlap
METAR-TAF:

METAR-TAF

Repülőterek :

Gage, Oklahoma, Amerikai Egyesült Államok

földrajzi szélesség: 36-17-48N, földrajzi hosszúság: 099-46-08W, magasság: 677 m

Jelenlegi meteorológiai megfigyelések

A jelentés 26 perccel ezelõtt készült, 02:53 UTC
Déli szél 9 kt
Hőmérséklet 26°C
Páratartalom 74%
Légköri nyomás 1017 hPa
Látótávolság: 16.1 km
Derült ég

METAR: KGAG 220253Z AUTO 17009KT 10SM CLR 26/21 A3003 RMK AO2 SLP137 T02610206 56009

Idő: 22:19 (03:19 UTC)


TAF: hiányzik

Meteorológiai megfigyelések és előrejelzések több, mint 4000 repülőtéren (METAR és TAF jelentéseket).

A térképen piros és sárga pontok jelzik az elérhető meteorológiai állomásokat.

Mozgassa az egeret a pont fölött, hogy megjelenjen az állomás neve.

Azután kattintson az időjárási megfigyelések és előrejelzések megtekintéséhez.

A térkép megváltoztatása: kattintson a fekete keresztel jelölt zöld gombra ráközelítéshez, a vonallal jelölt zöld gombra távolításhoz, vagy a zöld nyilakra a szomszédos térképek eléréséhez.


METAR-TAF: